Bata Airport


Codes: FGBT/BSG
Name: Bata Airport
City:
Country: Equatorial Guinea
Elevation: 13 ft.
Wikipedia:

Photos at Bata Airport


   Photos courtesy of SpottingLog. You can add your own sightings and photos by signing up for a free trial today.



No photos found.

Weather at Bata Airport


Time (UTC)DescriptionTempratureWindCloud coverageVisibilityPressureHumidity
13-Jun-2024 03:00Light Rain26°C7 mph, SW66%10000m1012hPa91%
13-Jun-2024 06:00Light Rain26°C7 mph, SW69%10000m1012hPa91%
13-Jun-2024 09:00Light Rain27°C7 mph, SW67%10000m1013hPa85%
13-Jun-2024 12:00Light Rain28°C11 mph, SW49%10000m1012hPa82%
13-Jun-2024 15:00Light Rain27°C11 mph, SW34%10000m1010hPa85%
13-Jun-2024 18:00Light Rain26°C11 mph, SW54%10000m1012hPa89%
13-Jun-2024 21:00Light Rain26°C11 mph, SW100%10000m1014hPa89%
14-Jun-2024 00:00Light Rain25°C11 mph, S99%10000m1013hPa90%
14-Jun-2024 03:00Light Rain25°C9 mph, S91%10000m1012hPa91%
14-Jun-2024 06:00Light Rain25°C9 mph, S95%10000m1014hPa89%
14-Jun-2024 09:00Light Rain26°C9 mph, S97%10000m1015hPa81%
14-Jun-2024 12:00Light Rain29°C11 mph, SW90%10000m1012hPa70%
14-Jun-2024 15:00Light Rain27°C13 mph, SW66%10000m1011hPa75%
14-Jun-2024 18:00Light Rain26°C11 mph, SW82%10000m1012hPa85%
14-Jun-2024 21:00Light Rain26°C7 mph, SW100%10000m1014hPa85%
15-Jun-2024 00:00Overcast Clouds25°C7 mph, S100%10000m1012hPa87%
15-Jun-2024 03:00Light Rain25°C7 mph, S100%10000m1011hPa88%
15-Jun-2024 06:00Light Rain25°C7 mph, S100%10000m1012hPa90%
15-Jun-2024 09:00Light Rain27°C9 mph, SW99%10000m1014hPa80%
15-Jun-2024 12:00Light Rain27°C11 mph, SW94%10000m1011hPa76%
15-Jun-2024 15:00Light Rain27°C11 mph, SW78%10000m1010hPa79%
15-Jun-2024 18:00Light Rain26°C9 mph, SW76%10000m1012hPa84%
15-Jun-2024 21:00Overcast Clouds25°C9 mph, SW87%10000m1013hPa86%
16-Jun-2024 00:00Light Rain25°C9 mph, S92%10000m1012hPa86%
16-Jun-2024 03:00Overcast Clouds25°C7 mph, S100%10000m1011hPa85%
16-Jun-2024 06:00Overcast Clouds25°C7 mph, S94%10000m1012hPa85%
16-Jun-2024 09:00Overcast Clouds26°C7 mph, S93%10000m1013hPa81%
16-Jun-2024 12:00Overcast Clouds26°C4 mph, SW96%10000m1011hPa77%
16-Jun-2024 15:00Overcast Clouds26°C7 mph, SW100%10000m1010hPa80%
16-Jun-2024 18:00Overcast Clouds26°C7 mph, SW100%10000m1012hPa83%
16-Jun-2024 21:00Light Rain25°C7 mph, SW89%10000m1013hPa85%
17-Jun-2024 00:00Light Rain25°C7 mph, S94%10000m1013hPa87%
17-Jun-2024 03:00Light Rain25°C4 mph, S99%10000m1012hPa88%
17-Jun-2024 06:00Light Rain25°C4 mph, S95%10000m1013hPa87%
17-Jun-2024 09:00Light Rain27°C4 mph, SW98%10000m1015hPa77%
17-Jun-2024 12:00Light Rain27°C9 mph, W94%10000m1013hPa78%
17-Jun-2024 15:00Light Rain26°C9 mph, W96%10000m1011hPa83%
17-Jun-2024 18:00Light Rain25°C4 mph, W97%10000m1013hPa87%
17-Jun-2024 21:00Light Rain25°C4 mph, SW97%10000m1014hPa88%
18-Jun-2024 00:00Light Rain25°C4 mph, S98%10000m1013hPa90%